sensor_id;sensor_type;location;lat;lon;timestamp;P1;durP1;ratioP1;P2;durP2;ratioP2
65172;SDS011;51758;52.218;5.172;2023-02-28T00:01:14;3.53;;;1.97;;
65172;SDS011;51758;52.218;5.172;2023-02-28T00:03:42;5.00;;;2.15;;
65172;SDS011;51758;52.218;5.172;2023-02-28T00:06:10;3.23;;;1.87;;
65172;SDS011;51758;52.218;5.172;2023-02-28T00:08:37;4.73;;;2.27;;
65172;SDS011;51758;52.218;5.172;2023-02-28T00:11:07;3.10;;;1.80;;
65172;SDS011;51758;52.218;5.172;2023-02-28T00:13:37;2.80;;;1.90;;
65172;SDS011;51758;52.218;5.172;2023-02-28T00:16:08;3.30;;;1.67;;
65172;SDS011;51758;52.218;5.172;2023-02-28T00:18:37;4.57;;;2.03;;
65172;SDS011;51758;52.218;5.172;2023-02-28T00:21:05;5.78;;;1.90;;
65172;SDS011;51758;52.218;5.172;2023-02-28T00:23:34;5.78;;;1.92;;
65172;SDS011;51758;52.218;5.172;2023-02-28T00:26:02;5.20;;;2.25;;
65172;SDS011;51758;52.218;5.172;2023-02-28T00:28:30;6.68;;;2.42;;
65172;SDS011;51758;52.218;5.172;2023-02-28T00:30:58;3.63;;;1.70;;
65172;SDS011;51758;52.218;5.172;2023-02-28T00:33:27;3.28;;;1.85;;
65172;SDS011;51758;52.218;5.172;2023-02-28T00:36:03;3.97;;;1.90;;
65172;SDS011;51758;52.218;5.172;2023-02-28T00:38:32;5.37;;;2.13;;
65172;SDS011;51758;52.218;5.172;2023-02-28T00:40:59;7.60;;;2.23;;
65172;SDS011;51758;52.218;5.172;2023-02-28T00:43:31;5.70;;;1.90;;
65172;SDS011;51758;52.218;5.172;2023-02-28T00:45:59;5.20;;;2.20;;
65172;SDS011;51758;52.218;5.172;2023-02-28T00:48:29;6.88;;;1.63;;
65172;SDS011;51758;52.218;5.172;2023-02-28T00:50:57;8.10;;;2.30;;
65172;SDS011;51758;52.218;5.172;2023-02-28T00:53:25;6.03;;;2.10;;
65172;SDS011;51758;52.218;5.172;2023-02-28T00:55:53;3.65;;;1.90;;
65172;SDS011;51758;52.218;5.172;2023-02-28T00:58:20;6.17;;;2.00;;
65172;SDS011;51758;52.218;5.172;2023-02-28T01:00:48;6.40;;;2.23;;
65172;SDS011;51758;52.218;5.172;2023-02-28T01:03:16;5.23;;;2.17;;
65172;SDS011;51758;52.218;5.172;2023-02-28T01:08:14;4.57;;;1.87;;
65172;SDS011;51758;52.218;5.172;2023-02-28T01:10:42;4.68;;;2.00;;
65172;SDS011;51758;52.218;5.172;2023-02-28T01:13:10;5.83;;;2.00;;
65172;SDS011;51758;52.218;5.172;2023-02-28T01:15:38;9.27;;;2.78;;
65172;SDS011;51758;52.218;5.172;2023-02-28T01:18:10;4.97;;;2.13;;
65172;SDS011;51758;52.218;5.172;2023-02-28T01:20:38;6.07;;;2.10;;
65172;SDS011;51758;52.218;5.172;2023-02-28T01:23:07;5.93;;;2.60;;
65172;SDS011;51758;52.218;5.172;2023-02-28T01:25:35;3.47;;;2.17;;
65172;SDS011;51758;52.218;5.172;2023-02-28T01:28:03;4.75;;;2.10;;
65172;SDS011;51758;52.218;5.172;2023-02-28T01:30:32;6.30;;;2.17;;
65172;SDS011;51758;52.218;5.172;2023-02-28T01:33:00;4.93;;;1.90;;
65172;SDS011;51758;52.218;5.172;2023-02-28T01:35:28;5.07;;;1.80;;
65172;SDS011;51758;52.218;5.172;2023-02-28T01:37:56;5.85;;;2.22;;
65172;SDS011;51758;52.218;5.172;2023-02-28T01:40:39;5.67;;;2.13;;
65172;SDS011;51758;52.218;5.172;2023-02-28T01:43:09;6.17;;;2.40;;
65172;SDS011;51758;52.218;5.172;2023-02-28T01:45:47;7.20;;;2.20;;
65172;SDS011;51758;52.218;5.172;2023-02-28T01:48:15;3.53;;;1.83;;
65172;SDS011;51758;52.218;5.172;2023-02-28T01:50:43;5.00;;;2.30;;
65172;SDS011;51758;52.218;5.172;2023-02-28T01:53:15;5.83;;;2.50;;
65172;SDS011;51758;52.218;5.172;2023-02-28T01:55:47;3.80;;;2.10;;
65172;SDS011;51758;52.218;5.172;2023-02-28T01:58:18;5.63;;;2.20;;
65172;SDS011;51758;52.218;5.172;2023-02-28T02:00:46;4.75;;;2.35;;
65172;SDS011;51758;52.218;5.172;2023-02-28T02:03:14;5.03;;;2.55;;
65172;SDS011;51758;52.218;5.172;2023-02-28T02:05:45;4.03;;;1.80;;
65172;SDS011;51758;52.218;5.172;2023-02-28T02:08:15;5.93;;;2.40;;
65172;SDS011;51758;52.218;5.172;2023-02-28T02:10:48;5.40;;;2.47;;
65172;SDS011;51758;52.218;5.172;2023-02-28T02:13:24;4.93;;;2.00;;
65172;SDS011;51758;52.218;5.172;2023-02-28T02:16:02;5.20;;;2.10;;
65172;SDS011;51758;52.218;5.172;2023-02-28T02:18:36;4.37;;;2.37;;
65172;SDS011;51758;52.218;5.172;2023-02-28T02:24:20;3.40;;;2.10;;
65172;SDS011;51758;52.218;5.172;2023-02-28T02:27:19;6.20;;;2.00;;
65172;SDS011;51758;52.218;5.172;2023-02-28T02:29:59;6.53;;;2.40;;
65172;SDS011;51758;52.218;5.172;2023-02-28T02:32:49;5.60;;;2.17;;
65172;SDS011;51758;52.218;5.172;2023-02-28T02:35:32;6.97;;;2.63;;
65172;SDS011;51758;52.218;5.172;2023-02-28T02:38:08;5.47;;;3.63;;
65172;SDS011;51758;52.218;5.172;2023-02-28T02:40:43;4.00;;;2.30;;
65172;SDS011;51758;52.218;5.172;2023-02-28T02:43:15;8.73;;;2.63;;
65172;SDS011;51758;52.218;5.172;2023-02-28T02:45:47;5.10;;;2.40;;
65172;SDS011;51758;52.218;5.172;2023-02-28T02:48:19;4.80;;;2.50;;
65172;SDS011;51758;52.218;5.172;2023-02-28T02:50:54;4.23;;;2.33;;
65172;SDS011;51758;52.218;5.172;2023-02-28T02:53:24;4.00;;;2.50;;
65172;SDS011;51758;52.218;5.172;2023-02-28T02:55:56;6.43;;;2.40;;
65172;SDS011;51758;52.218;5.172;2023-02-28T02:58:28;5.67;;;2.60;;
65172;SDS011;51758;52.218;5.172;2023-02-28T03:01:00;3.67;;;2.30;;
65172;SDS011;51758;52.218;5.172;2023-02-28T03:03:29;9.83;;;3.07;;
65172;SDS011;51758;52.218;5.172;2023-02-28T03:06:01;4.83;;;2.90;;
65172;SDS011;51758;52.218;5.172;2023-02-28T03:08:34;4.57;;;2.90;;
65172;SDS011;51758;52.218;5.172;2023-02-28T03:11:03;7.23;;;2.80;;
65172;SDS011;51758;52.218;5.172;2023-02-28T03:13:46;6.43;;;3.17;;
65172;SDS011;51758;52.218;5.172;2023-02-28T03:16:32;6.20;;;3.25;;
65172;SDS011;51758;52.218;5.172;2023-02-28T03:19:11;5.03;;;2.90;;
65172;SDS011;51758;52.218;5.172;2023-02-28T03:21:56;6.43;;;2.60;;
65172;SDS011;51758;52.218;5.172;2023-02-28T03:24:50;7.07;;;2.90;;
65172;SDS011;51758;52.218;5.172;2023-02-28T03:27:25;7.77;;;2.63;;
65172;SDS011;51758;52.218;5.172;2023-02-28T03:29:58;6.40;;;2.93;;
65172;SDS011;51758;52.218;5.172;2023-02-28T03:32:29;6.27;;;2.87;;
65172;SDS011;51758;52.218;5.172;2023-02-28T03:35:03;6.50;;;2.93;;
65172;SDS011;51758;52.218;5.172;2023-02-28T03:37:38;6.93;;;2.93;;
65172;SDS011;51758;52.218;5.172;2023-02-28T03:40:10;6.43;;;3.23;;
65172;SDS011;51758;52.218;5.172;2023-02-28T03:42:42;5.17;;;3.13;;
65172;SDS011;51758;52.218;5.172;2023-02-28T03:45:13;4.90;;;3.10;;
65172;SDS011;51758;52.218;5.172;2023-02-28T03:47:46;9.13;;;3.43;;
65172;SDS011;51758;52.218;5.172;2023-02-28T03:50:20;5.93;;;3.10;;
65172;SDS011;51758;52.218;5.172;2023-02-28T03:52:55;12.23;;;3.40;;
65172;SDS011;51758;52.218;5.172;2023-02-28T03:55:28;7.30;;;3.43;;
65172;SDS011;51758;52.218;5.172;2023-02-28T03:58:03;4.20;;;3.07;;
65172;SDS011;51758;52.218;5.172;2023-02-28T04:00:35;10.03;;;4.13;;
65172;SDS011;51758;52.218;5.172;2023-02-28T04:03:06;7.70;;;3.97;;
65172;SDS011;51758;52.218;5.172;2023-02-28T04:05:35;6.53;;;4.20;;
65172;SDS011;51758;52.218;5.172;2023-02-28T04:08:16;5.80;;;3.50;;
65172;SDS011;51758;52.218;5.172;2023-02-28T04:10:45;11.10;;;3.70;;
65172;SDS011;51758;52.218;5.172;2023-02-28T04:13:17;9.83;;;3.60;;
65172;SDS011;51758;52.218;5.172;2023-02-28T04:15:45;8.47;;;4.07;;
65172;SDS011;51758;52.218;5.172;2023-02-28T04:18:13;7.47;;;3.40;;
65172;SDS011;51758;52.218;5.172;2023-02-28T04:20:40;11.00;;;4.23;;
65172;SDS011;51758;52.218;5.172;2023-02-28T04:23:08;4.93;;;3.87;;
65172;SDS011;51758;52.218;5.172;2023-02-28T04:25:37;7.80;;;4.07;;
65172;SDS011;51758;52.218;5.172;2023-02-28T04:28:06;6.63;;;4.07;;
65172;SDS011;51758;52.218;5.172;2023-02-28T04:30:34;7.47;;;4.40;;
65172;SDS011;51758;52.218;5.172;2023-02-28T04:33:02;11.67;;;4.60;;
65172;SDS011;51758;52.218;5.172;2023-02-28T04:35:30;8.40;;;4.57;;
65172;SDS011;51758;52.218;5.172;2023-02-28T04:37:58;7.68;;;4.68;;
65172;SDS011;51758;52.218;5.172;2023-02-28T04:40:25;9.10;;;4.30;;
65172;SDS011;51758;52.218;5.172;2023-02-28T04:42:54;10.37;;;4.53;;
65172;SDS011;51758;52.218;5.172;2023-02-28T04:45:22;7.50;;;4.90;;
65172;SDS011;51758;52.218;5.172;2023-02-28T04:47:50;7.80;;;5.47;;
65172;SDS011;51758;52.218;5.172;2023-02-28T04:50:18;7.60;;;5.57;;
65172;SDS011;51758;52.218;5.172;2023-02-28T04:52:45;8.97;;;5.83;;
65172;SDS011;51758;52.218;5.172;2023-02-28T04:55:13;8.37;;;6.00;;
65172;SDS011;51758;52.218;5.172;2023-02-28T04:57:41;20.30;;;7.33;;
65172;SDS011;51758;52.218;5.172;2023-02-28T05:00:11;10.73;;;6.80;;
65172;SDS011;51758;52.218;5.172;2023-02-28T05:02:42;9.37;;;5.97;;
65172;SDS011;51758;52.218;5.172;2023-02-28T05:05:10;11.27;;;7.10;;
65172;SDS011;51758;52.218;5.172;2023-02-28T05:07:42;10.10;;;6.13;;
65172;SDS011;51758;52.218;5.172;2023-02-28T05:10:10;11.73;;;5.63;;
65172;SDS011;51758;52.218;5.172;2023-02-28T05:12:38;7.47;;;4.80;;
65172;SDS011;51758;52.218;5.172;2023-02-28T05:15:07;6.57;;;4.43;;
65172;SDS011;51758;52.218;5.172;2023-02-28T05:17:41;9.40;;;5.23;;
65172;SDS011;51758;52.218;5.172;2023-02-28T05:20:09;5.87;;;4.43;;
65172;SDS011;51758;52.218;5.172;2023-02-28T05:22:41;6.20;;;4.20;;
65172;SDS011;51758;52.218;5.172;2023-02-28T05:25:09;6.22;;;3.72;;
65172;SDS011;51758;52.218;5.172;2023-02-28T05:27:39;6.97;;;3.63;;
65172;SDS011;51758;52.218;5.172;2023-02-28T05:30:07;5.90;;;3.63;;
65172;SDS011;51758;52.218;5.172;2023-02-28T05:32:37;6.37;;;3.77;;
65172;SDS011;51758;52.218;5.172;2023-02-28T05:35:07;6.90;;;3.20;;
65172;SDS011;51758;52.218;5.172;2023-02-28T05:37:35;5.47;;;3.17;;
65172;SDS011;51758;52.218;5.172;2023-02-28T05:40:03;5.70;;;3.00;;
65172;SDS011;51758;52.218;5.172;2023-02-28T05:42:32;4.00;;;3.03;;
65172;SDS011;51758;52.218;5.172;2023-02-28T05:45:00;4.37;;;2.73;;
65172;SDS011;51758;52.218;5.172;2023-02-28T05:47:27;4.30;;;2.70;;
65172;SDS011;51758;52.218;5.172;2023-02-28T05:49:55;4.57;;;2.83;;
65172;SDS011;51758;52.218;5.172;2023-02-28T05:52:25;3.08;;;2.20;;
65172;SDS011;51758;52.218;5.172;2023-02-28T05:54:52;4.57;;;2.60;;
65172;SDS011;51758;52.218;5.172;2023-02-28T05:57:20;4.15;;;2.70;;
65172;SDS011;51758;52.218;5.172;2023-02-28T05:59:50;4.13;;;2.73;;
65172;SDS011;51758;52.218;5.172;2023-02-28T06:02:18;4.93;;;2.53;;
65172;SDS011;51758;52.218;5.172;2023-02-28T06:04:45;5.03;;;2.73;;
65172;SDS011;51758;52.218;5.172;2023-02-28T06:07:13;4.18;;;2.85;;
65172;SDS011;51758;52.218;5.172;2023-02-28T06:09:42;2.83;;;2.43;;
65172;SDS011;51758;52.218;5.172;2023-02-28T06:12:10;4.30;;;2.97;;
65172;SDS011;51758;52.218;5.172;2023-02-28T06:14:38;4.17;;;2.70;;
65172;SDS011;51758;52.218;5.172;2023-02-28T06:17:05;4.60;;;3.03;;
65172;SDS011;51758;52.218;5.172;2023-02-28T06:19:33;6.47;;;3.30;;
65172;SDS011;51758;52.218;5.172;2023-02-28T06:22:03;6.73;;;3.67;;
65172;SDS011;51758;52.218;5.172;2023-02-28T06:24:30;9.53;;;3.67;;
65172;SDS011;51758;52.218;5.172;2023-02-28T06:26:59;6.60;;;3.63;;
65172;SDS011;51758;52.218;5.172;2023-02-28T06:29:31;6.27;;;3.97;;
65172;SDS011;51758;52.218;5.172;2023-02-28T06:31:59;5.47;;;3.67;;
65172;SDS011;51758;52.218;5.172;2023-02-28T06:34:26;5.80;;;4.20;;
65172;SDS011;51758;52.218;5.172;2023-02-28T06:36:54;7.43;;;3.87;;
65172;SDS011;51758;52.218;5.172;2023-02-28T06:39:22;6.10;;;3.80;;
65172;SDS011;51758;52.218;5.172;2023-02-28T06:41:50;5.80;;;4.05;;
65172;SDS011;51758;52.218;5.172;2023-02-28T06:44:23;5.40;;;4.03;;
65172;SDS011;51758;52.218;5.172;2023-02-28T06:46:51;6.17;;;4.17;;
65172;SDS011;51758;52.218;5.172;2023-02-28T06:49:19;6.90;;;4.10;;
65172;SDS011;51758;52.218;5.172;2023-02-28T06:51:46;6.67;;;4.60;;
65172;SDS011;51758;52.218;5.172;2023-02-28T06:54:14;6.23;;;4.03;;
65172;SDS011;51758;52.218;5.172;2023-02-28T06:56:42;7.00;;;4.30;;
65172;SDS011;51758;52.218;5.172;2023-02-28T06:59:10;6.97;;;4.80;;
65172;SDS011;51758;52.218;5.172;2023-02-28T07:01:39;8.03;;;4.57;;
65172;SDS011;51758;52.218;5.172;2023-02-28T07:04:07;8.17;;;4.50;;
65172;SDS011;51758;52.218;5.172;2023-02-28T07:06:35;6.93;;;4.50;;
65172;SDS011;51758;52.218;5.172;2023-02-28T07:09:02;8.80;;;4.90;;
65172;SDS011;51758;52.218;5.172;2023-02-28T07:11:31;6.07;;;4.38;;
65172;SDS011;51758;52.218;5.172;2023-02-28T07:13:59;7.73;;;4.97;;
65172;SDS011;51758;52.218;5.172;2023-02-28T07:16:26;5.67;;;4.17;;
65172;SDS011;51758;52.218;5.172;2023-02-28T07:18:56;8.57;;;5.23;;
65172;SDS011;51758;52.218;5.172;2023-02-28T07:21:23;7.97;;;4.67;;
65172;SDS011;51758;52.218;5.172;2023-02-28T07:23:52;6.47;;;4.10;;
65172;SDS011;51758;52.218;5.172;2023-02-28T07:26:19;5.97;;;4.10;;
65172;SDS011;51758;52.218;5.172;2023-02-28T07:28:48;6.15;;;4.63;;
65172;SDS011;51758;52.218;5.172;2023-02-28T07:31:16;5.72;;;3.90;;
65172;SDS011;51758;52.218;5.172;2023-02-28T07:33:44;5.88;;;4.20;;
65172;SDS011;51758;52.218;5.172;2023-02-28T07:36:14;7.83;;;4.20;;
65172;SDS011;51758;52.218;5.172;2023-02-28T07:38:45;4.77;;;3.93;;
65172;SDS011;51758;52.218;5.172;2023-02-28T07:41:16;5.27;;;4.27;;
65172;SDS011;51758;52.218;5.172;2023-02-28T07:43:45;8.03;;;4.13;;
65172;SDS011;51758;52.218;5.172;2023-02-28T07:46:14;6.15;;;4.20;;
65172;SDS011;51758;52.218;5.172;2023-02-28T07:48:43;5.23;;;3.97;;
65172;SDS011;51758;52.218;5.172;2023-02-28T07:51:13;6.45;;;4.30;;
65172;SDS011;51758;52.218;5.172;2023-02-28T07:53:41;5.37;;;3.80;;
65172;SDS011;51758;52.218;5.172;2023-02-28T07:56:08;5.97;;;4.13;;
65172;SDS011;51758;52.218;5.172;2023-02-28T07:58:37;6.55;;;5.03;;
65172;SDS011;51758;52.218;5.172;2023-02-28T08:01:05;6.97;;;4.77;;
65172;SDS011;51758;52.218;5.172;2023-02-28T08:03:34;7.38;;;4.65;;
65172;SDS011;51758;52.218;5.172;2023-02-28T08:06:02;6.95;;;4.72;;
65172;SDS011;51758;52.218;5.172;2023-02-28T08:08:31;9.25;;;4.60;;
65172;SDS011;51758;52.218;5.172;2023-02-28T08:10:59;6.90;;;5.00;;
65172;SDS011;51758;52.218;5.172;2023-02-28T08:13:28;9.15;;;4.82;;
65172;SDS011;51758;52.218;5.172;2023-02-28T08:15:56;8.27;;;5.03;;
65172;SDS011;51758;52.218;5.172;2023-02-28T08:18:24;9.73;;;5.17;;
65172;SDS011;51758;52.218;5.172;2023-02-28T08:20:52;7.60;;;5.20;;
65172;SDS011;51758;52.218;5.172;2023-02-28T08:23:19;7.73;;;5.20;;
65172;SDS011;51758;52.218;5.172;2023-02-28T08:25:53;8.43;;;5.17;;
65172;SDS011;51758;52.218;5.172;2023-02-28T08:28:22;12.03;;;5.67;;
65172;SDS011;51758;52.218;5.172;2023-02-28T08:30:52;8.87;;;5.20;;
65172;SDS011;51758;52.218;5.172;2023-02-28T08:33:20;8.60;;;5.47;;
65172;SDS011;51758;52.218;5.172;2023-02-28T08:35:51;7.75;;;4.88;;
65172;SDS011;51758;52.218;5.172;2023-02-28T08:38:20;8.30;;;4.93;;
65172;SDS011;51758;52.218;5.172;2023-02-28T08:40:49;9.85;;;5.80;;
65172;SDS011;51758;52.218;5.172;2023-02-28T08:43:18;10.37;;;5.90;;
65172;SDS011;51758;52.218;5.172;2023-02-28T08:45:45;8.87;;;6.00;;
65172;SDS011;51758;52.218;5.172;2023-02-28T08:48:13;7.53;;;5.67;;
65172;SDS011;51758;52.218;5.172;2023-02-28T08:50:44;11.07;;;6.43;;
65172;SDS011;51758;52.218;5.172;2023-02-28T08:53:30;6.90;;;4.83;;
65172;SDS011;51758;52.218;5.172;2023-02-28T08:55:58;7.28;;;4.85;;
65172;SDS011;51758;52.218;5.172;2023-02-28T09:00:56;9.93;;;4.70;;
65172;SDS011;51758;52.218;5.172;2023-02-28T09:03:24;9.70;;;5.10;;
65172;SDS011;51758;52.218;5.172;2023-02-28T09:05:56;10.23;;;5.53;;
65172;SDS011;51758;52.218;5.172;2023-02-28T09:08:26;8.33;;;4.87;;
65172;SDS011;51758;52.218;5.172;2023-02-28T09:10:56;6.77;;;4.77;;
65172;SDS011;51758;52.218;5.172;2023-02-28T09:13:25;6.27;;;5.10;;
65172;SDS011;51758;52.218;5.172;2023-02-28T09:15:57;6.40;;;4.30;;
65172;SDS011;51758;52.218;5.172;2023-02-28T09:18:26;6.90;;;4.43;;
65172;SDS011;51758;52.218;5.172;2023-02-28T09:20:53;9.65;;;5.00;;
65172;SDS011;51758;52.218;5.172;2023-02-28T09:23:21;7.33;;;4.77;;
65172;SDS011;51758;52.218;5.172;2023-02-28T09:25:50;7.37;;;4.83;;
65172;SDS011;51758;52.218;5.172;2023-02-28T09:28:18;5.73;;;3.83;;
65172;SDS011;51758;52.218;5.172;2023-02-28T09:30:49;6.10;;;4.18;;
65172;SDS011;51758;52.218;5.172;2023-02-28T09:33:19;4.60;;;3.70;;
65172;SDS011;51758;52.218;5.172;2023-02-28T09:35:48;4.80;;;3.90;;
65172;SDS011;51758;52.218;5.172;2023-02-28T09:38:17;7.38;;;4.28;;
65172;SDS011;51758;52.218;5.172;2023-02-28T09:40:47;6.05;;;3.80;;
65172;SDS011;51758;52.218;5.172;2023-02-28T09:43:18;6.73;;;3.90;;
65172;SDS011;51758;52.218;5.172;2023-02-28T09:45:51;5.67;;;4.17;;
65172;SDS011;51758;52.218;5.172;2023-02-28T09:48:25;5.17;;;3.30;;
65172;SDS011;51758;52.218;5.172;2023-02-28T09:50:59;6.33;;;4.50;;
65172;SDS011;51758;52.218;5.172;2023-02-28T09:53:30;3.83;;;2.90;;
65172;SDS011;51758;52.218;5.172;2023-02-28T09:56:01;5.67;;;4.27;;
65172;SDS011;51758;52.218;5.172;2023-02-28T09:58:34;3.87;;;3.43;;
65172;SDS011;51758;52.218;5.172;2023-02-28T10:01:11;4.93;;;3.60;;
65172;SDS011;51758;52.218;5.172;2023-02-28T10:03:47;6.80;;;3.40;;
65172;SDS011;51758;52.218;5.172;2023-02-28T10:06:25;3.47;;;3.17;;
65172;SDS011;51758;52.218;5.172;2023-02-28T10:08:57;4.37;;;3.17;;
65172;SDS011;51758;52.218;5.172;2023-02-28T10:11:28;5.00;;;3.30;;
65172;SDS011;51758;52.218;5.172;2023-02-28T10:14:00;4.83;;;3.30;;
65172;SDS011;51758;52.218;5.172;2023-02-28T10:16:35;5.40;;;3.23;;
65172;SDS011;51758;52.218;5.172;2023-02-28T10:19:10;4.97;;;3.20;;
65172;SDS011;51758;52.218;5.172;2023-02-28T10:21:42;5.60;;;3.17;;
65172;SDS011;51758;52.218;5.172;2023-02-28T10:24:18;5.57;;;3.20;;
65172;SDS011;51758;52.218;5.172;2023-02-28T10:26:50;4.67;;;3.07;;
65172;SDS011;51758;52.218;5.172;2023-02-28T10:29:23;4.10;;;2.80;;
65172;SDS011;51758;52.218;5.172;2023-02-28T10:31:52;4.07;;;3.00;;
65172;SDS011;51758;52.218;5.172;2023-02-28T10:34:20;5.00;;;2.80;;
65172;SDS011;51758;52.218;5.172;2023-02-28T10:36:47;3.17;;;2.80;;
65172;SDS011;51758;52.218;5.172;2023-02-28T10:39:34;3.50;;;2.63;;
65172;SDS011;51758;52.218;5.172;2023-02-28T10:42:03;2.60;;;2.20;;
65172;SDS011;51758;52.218;5.172;2023-02-28T10:44:32;2.80;;;2.43;;
65172;SDS011;51758;52.218;5.172;2023-02-28T10:47:02;5.43;;;2.78;;
65172;SDS011;51758;52.218;5.172;2023-02-28T10:49:30;2.00;;;1.60;;
65172;SDS011;51758;52.218;5.172;2023-02-28T10:51:59;3.80;;;1.60;;
65172;SDS011;51758;52.218;5.172;2023-02-28T10:54:29;3.43;;;2.00;;
65172;SDS011;51758;52.218;5.172;2023-02-28T10:57:15;3.07;;;2.07;;
65172;SDS011;51758;52.218;5.172;2023-02-28T10:59:45;4.67;;;2.07;;
65172;SDS011;51758;52.218;5.172;2023-02-28T11:05:00;2.40;;;1.90;;
65172;SDS011;51758;52.218;5.172;2023-02-28T11:07:28;3.83;;;1.73;;
65172;SDS011;51758;52.218;5.172;2023-02-28T11:10:16;1.80;;;1.57;;
65172;SDS011;51758;52.218;5.172;2023-02-28T11:12:47;1.33;;;1.23;;
65172;SDS011;51758;52.218;5.172;2023-02-28T11:15:21;2.07;;;1.47;;
65172;SDS011;51758;52.218;5.172;2023-02-28T11:17:57;2.30;;;1.50;;
65172;SDS011;51758;52.218;5.172;2023-02-28T11:20:27;2.70;;;1.50;;
65172;SDS011;51758;52.218;5.172;2023-02-28T11:22:57;2.30;;;1.40;;
65172;SDS011;51758;52.218;5.172;2023-02-28T11:25:28;1.87;;;1.60;;
65172;SDS011;51758;52.218;5.172;2023-02-28T11:27:58;2.40;;;1.50;;
65172;SDS011;51758;52.218;5.172;2023-02-28T11:30:32;3.53;;;1.73;;
65172;SDS011;51758;52.218;5.172;2023-02-28T11:33:13;1.93;;;1.50;;
65172;SDS011;51758;52.218;5.172;2023-02-28T11:35:49;2.00;;;1.80;;
65172;SDS011;51758;52.218;5.172;2023-02-28T11:38:18;3.80;;;2.00;;
65172;SDS011;51758;52.218;5.172;2023-02-28T11:40:48;3.95;;;1.85;;
65172;SDS011;51758;52.218;5.172;2023-02-28T11:43:30;2.87;;;1.70;;
65172;SDS011;51758;52.218;5.172;2023-02-28T11:46:15;2.60;;;1.70;;
65172;SDS011;51758;52.218;5.172;2023-02-28T11:48:57;2.57;;;1.70;;
65172;SDS011;51758;52.218;5.172;2023-02-28T11:51:41;2.50;;;1.83;;
65172;SDS011;51758;52.218;5.172;2023-02-28T11:54:22;4.37;;;1.80;;
65172;SDS011;51758;52.218;5.172;2023-02-28T11:56:57;2.43;;;1.80;;
65172;SDS011;51758;52.218;5.172;2023-02-28T11:59:35;4.13;;;1.70;;
65172;SDS011;51758;52.218;5.172;2023-02-28T12:02:22;1.80;;;1.40;;
65172;SDS011;51758;52.218;5.172;2023-02-28T12:04:58;1.80;;;1.52;;
65172;SDS011;51758;52.218;5.172;2023-02-28T12:07:40;2.70;;;1.60;;
65172;SDS011;51758;52.218;5.172;2023-02-28T12:10:19;2.55;;;1.38;;
65172;SDS011;51758;52.218;5.172;2023-02-28T12:12:53;2.65;;;1.63;;
65172;SDS011;51758;52.218;5.172;2023-02-28T12:15:49;2.92;;;1.60;;
65172;SDS011;51758;52.218;5.172;2023-02-28T12:18:41;2.47;;;1.45;;
65172;SDS011;51758;52.218;5.172;2023-02-28T12:21:31;2.35;;;1.50;;
65172;SDS011;51758;52.218;5.172;2023-02-28T12:24:15;2.38;;;1.50;;
65172;SDS011;51758;52.218;5.172;2023-02-28T12:26:53;1.80;;;1.42;;
65172;SDS011;51758;52.218;5.172;2023-02-28T12:29:26;1.85;;;1.40;;
65172;SDS011;51758;52.218;5.172;2023-02-28T12:31:58;2.60;;;1.50;;
65172;SDS011;51758;52.218;5.172;2023-02-28T12:34:33;1.75;;;1.40;;
65172;SDS011;51758;52.218;5.172;2023-02-28T12:37:07;2.30;;;1.52;;
65172;SDS011;51758;52.218;5.172;2023-02-28T12:39:41;2.70;;;1.50;;
65172;SDS011;51758;52.218;5.172;2023-02-28T12:42:17;1.70;;;1.42;;
65172;SDS011;51758;52.218;5.172;2023-02-28T12:44:52;1.33;;;1.23;;
65172;SDS011;51758;52.218;5.172;2023-02-28T12:47:24;2.13;;;1.25;;
65172;SDS011;51758;52.218;5.172;2023-02-28T12:49:53;2.00;;;1.50;;
65172;SDS011;51758;52.218;5.172;2023-02-28T12:52:28;1.92;;;1.40;;
65172;SDS011;51758;52.218;5.172;2023-02-28T12:55:03;1.35;;;1.25;;
65172;SDS011;51758;52.218;5.172;2023-02-28T12:57:36;3.03;;;1.60;;
65172;SDS011;51758;52.218;5.172;2023-02-28T13:00:10;1.88;;;1.45;;
65172;SDS011;51758;52.218;5.172;2023-02-28T13:02:44;2.60;;;1.48;;
65172;SDS011;51758;52.218;5.172;2023-02-28T13:11:29;1.75;;;1.35;;
65172;SDS011;51758;52.218;5.172;2023-02-28T13:14:01;2.08;;;1.58;;
65172;SDS011;51758;52.218;5.172;2023-02-28T13:19:27;1.90;;;1.52;;
65172;SDS011;51758;52.218;5.172;2023-02-28T13:21:57;3.97;;;1.30;;
65172;SDS011;51758;52.218;5.172;2023-02-28T13:27:21;1.27;;;1.13;;
65172;SDS011;51758;52.218;5.172;2023-02-28T13:29:58;1.85;;;1.60;;
65172;SDS011;51758;52.218;5.172;2023-02-28T13:32:32;1.90;;;1.42;;
65172;SDS011;51758;52.218;5.172;2023-02-28T13:35:12;1.90;;;1.47;;
65172;SDS011;51758;52.218;5.172;2023-02-28T13:37:42;2.03;;;1.70;;
65172;SDS011;51758;52.218;5.172;2023-02-28T13:40:28;1.60;;;1.50;;
65172;SDS011;51758;52.218;5.172;2023-02-28T13:43:02;1.93;;;1.50;;
65172;SDS011;51758;52.218;5.172;2023-02-28T13:45:35;1.67;;;1.57;;
65172;SDS011;51758;52.218;5.172;2023-02-28T13:48:05;2.33;;;1.50;;
65172;SDS011;51758;52.218;5.172;2023-02-28T13:50:43;2.83;;;1.97;;
65172;SDS011;51758;52.218;5.172;2023-02-28T13:56:29;3.37;;;1.50;;
65172;SDS011;51758;52.218;5.172;2023-02-28T13:59:15;2.33;;;1.73;;
65172;SDS011;51758;52.218;5.172;2023-02-28T14:02:03;1.60;;;1.43;;
65172;SDS011;51758;52.218;5.172;2023-02-28T14:05:02;2.10;;;1.50;;
65172;SDS011;51758;52.218;5.172;2023-02-28T14:07:36;2.47;;;1.70;;
65172;SDS011;51758;52.218;5.172;2023-02-28T14:10:15;2.40;;;1.70;;
65172;SDS011;51758;52.218;5.172;2023-02-28T14:12:53;3.10;;;1.50;;
65172;SDS011;51758;52.218;5.172;2023-02-28T14:15:39;2.20;;;1.73;;
65172;SDS011;51758;52.218;5.172;2023-02-28T14:18:14;4.17;;;1.80;;
65172;SDS011;51758;52.218;5.172;2023-02-28T14:20:47;3.53;;;1.80;;
65172;SDS011;51758;52.218;5.172;2023-02-28T14:23:21;4.80;;;1.70;;
65172;SDS011;51758;52.218;5.172;2023-02-28T14:26:14;4.13;;;1.90;;
65172;SDS011;51758;52.218;5.172;2023-02-28T14:29:06;4.27;;;1.90;;
65172;SDS011;51758;52.218;5.172;2023-02-28T14:31:48;2.80;;;1.80;;
65172;SDS011;51758;52.218;5.172;2023-02-28T14:34:27;3.23;;;2.07;;
65172;SDS011;51758;52.218;5.172;2023-02-28T14:37:04;3.30;;;1.57;;
65172;SDS011;51758;52.218;5.172;2023-02-28T14:39:34;2.73;;;2.17;;
65172;SDS011;51758;52.218;5.172;2023-02-28T14:42:03;2.20;;;1.83;;
65172;SDS011;51758;52.218;5.172;2023-02-28T14:44:32;2.05;;;1.75;;
65172;SDS011;51758;52.218;5.172;2023-02-28T14:47:01;2.17;;;1.60;;
65172;SDS011;51758;52.218;5.172;2023-02-28T14:49:34;3.33;;;1.90;;
65172;SDS011;51758;52.218;5.172;2023-02-28T14:52:07;2.73;;;1.90;;
65172;SDS011;51758;52.218;5.172;2023-02-28T14:54:42;4.43;;;1.98;;
65172;SDS011;51758;52.218;5.172;2023-02-28T14:59:56;2.10;;;1.87;;
65172;SDS011;51758;52.218;5.172;2023-02-28T15:02:25;2.30;;;1.80;;
65172;SDS011;51758;52.218;5.172;2023-02-28T15:04:58;2.87;;;1.83;;
65172;SDS011;51758;52.218;5.172;2023-02-28T15:07:27;3.60;;;1.80;;
65172;SDS011;51758;52.218;5.172;2023-02-28T15:10:08;2.73;;;1.70;;
65172;SDS011;51758;52.218;5.172;2023-02-28T15:12:38;2.60;;;2.00;;
65172;SDS011;51758;52.218;5.172;2023-02-28T15:17:42;3.60;;;2.10;;
65172;SDS011;51758;52.218;5.172;2023-02-28T15:20:13;2.83;;;2.10;;
65172;SDS011;51758;52.218;5.172;2023-02-28T15:22:44;3.43;;;2.03;;
65172;SDS011;51758;52.218;5.172;2023-02-28T15:25:15;3.27;;;2.03;;
65172;SDS011;51758;52.218;5.172;2023-02-28T15:27:47;2.53;;;2.00;;
65172;SDS011;51758;52.218;5.172;2023-02-28T15:30:19;5.07;;;2.10;;
65172;SDS011;51758;52.218;5.172;2023-02-28T15:35:37;2.10;;;1.90;;
65172;SDS011;51758;52.218;5.172;2023-02-28T15:38:12;3.23;;;2.20;;
65172;SDS011;51758;52.218;5.172;2023-02-28T15:40:43;4.00;;;2.00;;
65172;SDS011;51758;52.218;5.172;2023-02-28T15:43:16;2.90;;;2.10;;
65172;SDS011;51758;52.218;5.172;2023-02-28T15:45:48;3.10;;;2.27;;
65172;SDS011;51758;52.218;5.172;2023-02-28T15:48:18;2.63;;;2.07;;
65172;SDS011;51758;52.218;5.172;2023-02-28T15:50:49;3.43;;;2.03;;